sensor_id;sensor_type;location;lat;lon;timestamp;pressure;altitude;pressure_sealevel;temperature;humidity
59158;BME280;44940;55.060;73.168;2022-09-30T00:00:19;102168.78;;;-1.56;100.00
59158;BME280;44940;55.060;73.168;2022-09-30T00:02:46;102177.75;;;-1.55;100.00
59158;BME280;44940;55.060;73.168;2022-09-30T00:05:12;102172.25;;;-1.48;100.00
59158;BME280;44940;55.060;73.168;2022-09-30T00:07:39;102174.75;;;-1.47;100.00
59158;BME280;44940;55.060;73.168;2022-09-30T00:10:07;102183.50;;;-1.45;100.00
59158;BME280;44940;55.060;73.168;2022-09-30T00:12:34;102180.78;;;-1.45;100.00
59158;BME280;44940;55.060;73.168;2022-09-30T00:15:00;102184.47;;;-1.39;100.00
59158;BME280;44940;55.060;73.168;2022-09-30T00:17:27;102191.50;;;-1.50;100.00
59158;BME280;44940;55.060;73.168;2022-09-30T00:19:54;102195.78;;;-1.42;100.00
59158;BME280;44940;55.060;73.168;2022-09-30T00:22:20;102196.84;;;-1.43;100.00
59158;BME280;44940;55.060;73.168;2022-09-30T00:24:47;102206.81;;;-1.37;100.00
59158;BME280;44940;55.060;73.168;2022-09-30T00:27:15;102210.06;;;-1.47;100.00
59158;BME280;44940;55.060;73.168;2022-09-30T00:29:43;102212.19;;;-1.49;100.00
59158;BME280;44940;55.060;73.168;2022-09-30T00:32:10;102209.47;;;-1.49;100.00
59158;BME280;44940;55.060;73.168;2022-09-30T00:34:37;102211.41;;;-1.56;100.00
59158;BME280;44940;55.060;73.168;2022-09-30T00:37:03;102215.66;;;-1.42;100.00
59158;BME280;44940;55.060;73.168;2022-09-30T00:39:30;102225.78;;;-1.49;100.00
59158;BME280;44940;55.060;73.168;2022-09-30T00:41:58;102222.47;;;-1.51;100.00
59158;BME280;44940;55.060;73.168;2022-09-30T00:47:17;102222.47;;;-1.51;100.00
59158;BME280;44940;55.060;73.168;2022-09-30T00:49:46;102224.88;;;-1.61;100.00
59158;BME280;44940;55.060;73.168;2022-09-30T00:52:13;102219.16;;;-1.71;100.00
59158;BME280;44940;55.060;73.168;2022-09-30T00:54:40;102220.94;;;-1.65;100.00
59158;BME280;44940;55.060;73.168;2022-09-30T00:57:07;102224.25;;;-1.63;100.00
59158;BME280;44940;55.060;73.168;2022-09-30T00:59:35;102224.25;;;-1.63;100.00
59158;BME280;44940;55.060;73.168;2022-09-30T01:02:03;102230.75;;;-1.64;100.00
59158;BME280;44940;55.060;73.168;2022-09-30T01:04:32;102226.47;;;-1.72;100.00
59158;BME280;44940;55.060;73.168;2022-09-30T01:07:00;102238.16;;;-1.71;100.00
59158;BME280;44940;55.060;73.168;2022-09-30T01:09:27;102235.72;;;-1.79;100.00
59158;BME280;44940;55.060;73.168;2022-09-30T01:11:54;102241.53;;;-1.76;100.00
59158;BME280;44940;55.060;73.168;2022-09-30T01:14:22;102238.16;;;-1.71;100.00
59158;BME280;44940;55.060;73.168;2022-09-30T01:16:52;102239.88;;;-1.77;100.00
59158;BME280;44940;55.060;73.168;2022-09-30T01:22:22;102235.81;;;-1.68;100.00
59158;BME280;44940;55.060;73.168;2022-09-30T01:25:00;102236.19;;;-1.64;100.00
59158;BME280;44940;55.060;73.168;2022-09-30T01:27:34;102244.19;;;-1.69;100.00
59158;BME280;44940;55.060;73.168;2022-09-30T01:30:06;102249.91;;;-1.59;100.00
59158;BME280;44940;55.060;73.168;2022-09-30T01:32:42;102249.78;;;-1.64;100.00
59158;BME280;44940;55.060;73.168;2022-09-30T01:35:13;102249.09;;;-1.60;100.00
59158;BME280;44940;55.060;73.168;2022-09-30T01:37:42;102254.28;;;-1.58;100.00
59158;BME280;44940;55.060;73.168;2022-09-30T01:40:14;102250.91;;;-1.54;100.00
59158;BME280;44940;55.060;73.168;2022-09-30T01:42:50;102257.78;;;-1.51;100.00
59158;BME280;44940;55.060;73.168;2022-09-30T01:45:20;102256.03;;;-1.45;100.00
59158;BME280;44940;55.060;73.168;2022-09-30T01:47:54;102262.75;;;-1.48;100.00
59158;BME280;44940;55.060;73.168;2022-09-30T01:50:24;102261.69;;;-1.47;100.00
59158;BME280;44940;55.060;73.168;2022-09-30T01:52:55;102260.78;;;-1.41;100.00
59158;BME280;44940;55.060;73.168;2022-09-30T01:55:24;102267.44;;;-1.37;100.00
59158;BME280;44940;55.060;73.168;2022-09-30T01:57:55;102268.66;;;-1.33;100.00
59158;BME280;44940;55.060;73.168;2022-09-30T02:00:23;102273.19;;;-1.27;100.00
59158;BME280;44940;55.060;73.168;2022-09-30T02:02:50;102278.97;;;-1.23;100.00
59158;BME280;44940;55.060;73.168;2022-09-30T02:05:20;102273.16;;;-1.08;100.00
59158;BME280;44940;55.060;73.168;2022-09-30T02:07:50;102280.03;;;-1.06;100.00
59158;BME280;44940;55.060;73.168;2022-09-30T02:10:21;102282.59;;;-1.11;100.00
59158;BME280;44940;55.060;73.168;2022-09-30T02:12:51;102279.66;;;-1.09;100.00
59158;BME280;44940;55.060;73.168;2022-09-30T02:15:20;102287.22;;;-1.11;100.00
59158;BME280;44940;55.060;73.168;2022-09-30T02:17:49;102300.50;;;-1.03;100.00
59158;BME280;44940;55.060;73.168;2022-09-30T02:20:18;102298.38;;;-1.01;100.00
59158;BME280;44940;55.060;73.168;2022-09-30T02:22:47;102288.50;;;-0.96;100.00
59158;BME280;44940;55.060;73.168;2022-09-30T02:25:16;102290.97;;;-0.94;100.00
59158;BME280;44940;55.060;73.168;2022-09-30T02:27:44;102297.50;;;-0.83;100.00
59158;BME280;44940;55.060;73.168;2022-09-30T02:30:13;102305.00;;;-0.97;100.00
59158;BME280;44940;55.060;73.168;2022-09-30T02:32:41;102298.81;;;-0.86;100.00
59158;BME280;44940;55.060;73.168;2022-09-30T02:35:09;102306.84;;;-0.91;100.00
59158;BME280;44940;55.060;73.168;2022-09-30T02:37:38;102306.03;;;-0.80;100.00
59158;BME280;44940;55.060;73.168;2022-09-30T02:40:09;102312.84;;;-0.71;100.00
59158;BME280;44940;55.060;73.168;2022-09-30T02:42:38;102313.31;;;-0.74;100.00
59158;BME280;44940;55.060;73.168;2022-09-30T02:45:07;102309.97;;;-0.76;100.00
59158;BME280;44940;55.060;73.168;2022-09-30T02:47:40;102316.91;;;-0.80;100.00
59158;BME280;44940;55.060;73.168;2022-09-30T02:50:10;102316.25;;;-0.75;100.00
59158;BME280;44940;55.060;73.168;2022-09-30T02:52:43;102322.09;;;-0.60;100.00
59158;BME280;44940;55.060;73.168;2022-09-30T02:55:16;102322.50;;;-0.56;100.00
59158;BME280;44940;55.060;73.168;2022-09-30T02:57:46;102317.63;;;-0.54;100.00
59158;BME280;44940;55.060;73.168;2022-09-30T03:00:16;102322.28;;;-0.43;100.00
59158;BME280;44940;55.060;73.168;2022-09-30T03:02:43;102315.88;;;-0.49;100.00
59158;BME280;44940;55.060;73.168;2022-09-30T03:05:09;102316.56;;;-0.53;100.00
59158;BME280;44940;55.060;73.168;2022-09-30T03:07:37;102319.31;;;-0.42;100.00
59158;BME280;44940;55.060;73.168;2022-09-30T03:10:05;102320.91;;;-0.34;100.00
59158;BME280;44940;55.060;73.168;2022-09-30T03:12:40;102322.56;;;-0.33;100.00
59158;BME280;44940;55.060;73.168;2022-09-30T03:18:00;102327.31;;;-0.28;100.00
59158;BME280;44940;55.060;73.168;2022-09-30T03:20:35;102325.81;;;-0.13;100.00
59158;BME280;44940;55.060;73.168;2022-09-30T03:25:50;102324.63;;;-0.05;100.00
59158;BME280;44940;55.060;73.168;2022-09-30T03:28:23;102341.59;;;0.09;100.00
59158;BME280;44940;55.060;73.168;2022-09-30T03:30:52;102333.06;;;0.05;100.00
59158;BME280;44940;55.060;73.168;2022-09-30T03:33:21;102342.78;;;0.13;100.00
59158;BME280;44940;55.060;73.168;2022-09-30T03:35:51;102334.13;;;0.16;100.00
59158;BME280;44940;55.060;73.168;2022-09-30T03:38:23;102340.44;;;0.28;100.00
59158;BME280;44940;55.060;73.168;2022-09-30T03:40:52;102340.16;;;0.18;100.00
59158;BME280;44940;55.060;73.168;2022-09-30T03:43:24;102343.88;;;0.35;100.00
59158;BME280;44940;55.060;73.168;2022-09-30T03:45:53;102350.41;;;0.46;100.00
59158;BME280;44940;55.060;73.168;2022-09-30T03:48:20;102348.84;;;0.38;100.00
59158;BME280;44940;55.060;73.168;2022-09-30T03:50:48;102355.00;;;0.57;100.00
59158;BME280;44940;55.060;73.168;2022-09-30T03:53:15;102360.00;;;0.60;100.00
59158;BME280;44940;55.060;73.168;2022-09-30T03:55:45;102363.31;;;0.62;100.00
59158;BME280;44940;55.060;73.168;2022-09-30T03:58:13;102357.50;;;0.82;100.00
59158;BME280;44940;55.060;73.168;2022-09-30T04:00:42;102349.84;;;0.96;100.00
59158;BME280;44940;55.060;73.168;2022-09-30T04:03:11;102355.84;;;0.81;100.00
59158;BME280;44940;55.060;73.168;2022-09-30T04:05:38;102356.78;;;0.75;100.00
59158;BME280;44940;55.060;73.168;2022-09-30T04:08:04;102356.66;;;0.70;100.00
59158;BME280;44940;55.060;73.168;2022-09-30T04:10:31;102361.88;;;0.71;100.00
59158;BME280;44940;55.060;73.168;2022-09-30T04:12:57;102358.31;;;0.71;100.00
59158;BME280;44940;55.060;73.168;2022-09-30T04:15:24;102358.19;;;0.89;100.00
59158;BME280;44940;55.060;73.168;2022-09-30T04:17:53;102356.59;;;1.16;100.00
59158;BME280;44940;55.060;73.168;2022-09-30T04:20:20;102362.84;;;1.29;100.00
59158;BME280;44940;55.060;73.168;2022-09-30T04:22:46;102368.88;;;1.31;100.00
59158;BME280;44940;55.060;73.168;2022-09-30T04:25:13;71117.31;;;-144.94;100.00
59158;BME280;44940;55.060;73.168;2022-09-30T04:27:40;71117.31;;;-144.94;100.00
59158;BME280;44940;55.060;73.168;2022-09-30T04:30:07;71117.31;;;-144.94;100.00
59158;BME280;44940;55.060;73.168;2022-09-30T04:32:33;71117.31;;;-144.94;100.00
59158;BME280;44940;55.060;73.168;2022-09-30T04:35:01;71117.31;;;-144.94;100.00
59158;BME280;44940;55.060;73.168;2022-09-30T04:37:28;71117.31;;;-144.94;100.00
59158;BME280;44940;55.060;73.168;2022-09-30T04:39:54;71117.31;;;-144.94;100.00
59158;BME280;44940;55.060;73.168;2022-09-30T04:42:21;102370.22;;;3.51;90.29
59158;BME280;44940;55.060;73.168;2022-09-30T04:44:47;102375.63;;;3.46;87.37
59158;BME280;44940;55.060;73.168;2022-09-30T04:47:14;102374.78;;;3.46;90.61
59158;BME280;44940;55.060;73.168;2022-09-30T04:49:41;102373.84;;;3.35;88.27
59158;BME280;44940;55.060;73.168;2022-09-30T04:52:09;102369.16;;;3.09;89.96
59158;BME280;44940;55.060;73.168;2022-09-30T04:54:35;102368.97;;;2.77;88.61
59158;BME280;44940;55.060;73.168;2022-09-30T04:57:02;102376.44;;;2.81;89.70
59158;BME280;44940;55.060;73.168;2022-09-30T04:59:29;102378.75;;;2.89;87.21
59158;BME280;44940;55.060;73.168;2022-09-30T05:01:55;102383.19;;;2.57;88.50
59158;BME280;44940;55.060;73.168;2022-09-30T05:04:22;102377.28;;;2.65;87.66
59158;BME280;44940;55.060;73.168;2022-09-30T05:06:49;102378.97;;;2.88;89.46
59158;BME280;44940;55.060;73.168;2022-09-30T05:09:17;102371.44;;;2.95;89.67
59158;BME280;44940;55.060;73.168;2022-09-30T05:11:43;102371.72;;;2.60;85.75
59158;BME280;44940;55.060;73.168;2022-09-30T05:14:10;102380.09;;;2.70;87.83
59158;BME280;44940;55.060;73.168;2022-09-30T05:16:36;102381.94;;;2.48;87.96
59158;BME280;44940;55.060;73.168;2022-09-30T05:19:03;102374.28;;;2.66;88.83
59158;BME280;44940;55.060;73.168;2022-09-30T05:21:30;102386.72;;;2.74;87.65
59158;BME280;44940;55.060;73.168;2022-09-30T05:23:56;102377.59;;;2.68;86.78
59158;BME280;44940;55.060;73.168;2022-09-30T05:26:25;102378.91;;;2.83;85.38
59158;BME280;44940;55.060;73.168;2022-09-30T05:28:51;102385.03;;;2.90;88.58
59158;BME280;44940;55.060;73.168;2022-09-30T05:31:18;102386.31;;;3.04;87.97
59158;BME280;44940;55.060;73.168;2022-09-30T05:33:46;102380.09;;;2.70;87.34
59158;BME280;44940;55.060;73.168;2022-09-30T05:36:13;102386.72;;;2.74;87.57
59158;BME280;44940;55.060;73.168;2022-09-30T05:38:40;102382.72;;;2.82;86.79
59158;BME280;44940;55.060;73.168;2022-09-30T05:41:07;102387.03;;;2.94;86.92
59158;BME280;44940;55.060;73.168;2022-09-30T05:43:38;102380.47;;;2.95;87.12
59158;BME280;44940;55.060;73.168;2022-09-30T05:46:05;102386.63;;;3.08;86.81
59158;BME280;44940;55.060;73.168;2022-09-30T05:48:32;102382.13;;;3.18;85.79
59158;BME280;44940;55.060;73.168;2022-09-30T05:50:58;102393.16;;;3.23;84.11
59158;BME280;44940;55.060;73.168;2022-09-30T05:53:26;102393.09;;;3.18;84.27
59158;BME280;44940;55.060;73.168;2022-09-30T05:55:53;102393.09;;;3.18;82.72
59158;BME280;44940;55.060;73.168;2022-09-30T05:58:20;102386.72;;;3.13;82.79
59158;BME280;44940;55.060;73.168;2022-09-30T06:00:49;102393.91;;;3.19;84.83
59158;BME280;44940;55.060;73.168;2022-09-30T06:03:16;102391.19;;;3.19;83.36
59158;BME280;44940;55.060;73.168;2022-09-30T06:05:42;102393.47;;;2.88;82.95
59158;BME280;44940;55.060;73.168;2022-09-30T06:08:11;102390.97;;;3.03;84.19
59158;BME280;44940;55.060;73.168;2022-09-30T06:10:39;102385.38;;;3.15;80.78
59158;BME280;44940;55.060;73.168;2022-09-30T06:13:05;102390.81;;;3.32;81.79
59158;BME280;44940;55.060;73.168;2022-09-30T06:15:32;102386.97;;;3.55;81.46
59158;BME280;44940;55.060;73.168;2022-09-30T06:18:04;102394.78;;;3.46;80.51
59158;BME280;44940;55.060;73.168;2022-09-30T06:20:31;102390.91;;;3.42;79.51
59158;BME280;44940;55.060;73.168;2022-09-30T06:22:58;102398.19;;;3.10;78.14
59158;BME280;44940;55.060;73.168;2022-09-30T06:25:25;102397.63;;;3.29;79.99
59158;BME280;44940;55.060;73.168;2022-09-30T06:27:53;102393.53;;;3.32;81.81
59158;BME280;44940;55.060;73.168;2022-09-30T06:30:20;102392.81;;;3.20;80.72
59158;BME280;44940;55.060;73.168;2022-09-30T06:32:47;102400.94;;;3.10;76.90
59158;BME280;44940;55.060;73.168;2022-09-30T06:35:15;102394.78;;;3.02;78.19
59158;BME280;44940;55.060;73.168;2022-09-30T06:37:43;102401.63;;;2.83;81.19
59158;BME280;44940;55.060;73.168;2022-09-30T06:40:09;102403.78;;;2.81;78.91
59158;BME280;44940;55.060;73.168;2022-09-30T06:42:36;102403.41;;;2.72;79.10
59158;BME280;44940;55.060;73.168;2022-09-30T06:45:03;102410.34;;;2.47;78.63
59158;BME280;44940;55.060;73.168;2022-09-30T06:47:30;102393.03;;;2.58;79.07
59158;BME280;44940;55.060;73.168;2022-09-30T06:49:58;102399.13;;;2.98;80.10
59158;BME280;44940;55.060;73.168;2022-09-30T06:52:26;102398.88;;;3.22;79.93
59158;BME280;44940;55.060;73.168;2022-09-30T06:54:53;102408.50;;;3.46;79.67
59158;BME280;44940;55.060;73.168;2022-09-30T06:57:21;102402.63;;;3.59;77.48
59158;BME280;44940;55.060;73.168;2022-09-30T06:59:49;102406.91;;;3.50;70.47
59158;BME280;44940;55.060;73.168;2022-09-30T07:02:16;102406.16;;;3.55;70.29
59158;BME280;44940;55.060;73.168;2022-09-30T07:04:43;102408.63;;;3.56;71.73
59158;BME280;44940;55.060;73.168;2022-09-30T07:07:09;102402.59;;;3.54;71.74
59158;BME280;44940;55.060;73.168;2022-09-30T07:09:38;102398.63;;;3.94;70.54
59158;BME280;44940;55.060;73.168;2022-09-30T07:12:05;102414.19;;;4.15;65.21
59158;BME280;44940;55.060;73.168;2022-09-30T07:14:32;102405.41;;;4.13;61.68
59158;BME280;44940;55.060;73.168;2022-09-30T07:17:01;102403.84;;;3.95;63.66
59158;BME280;44940;55.060;73.168;2022-09-30T07:19:29;102404.06;;;3.89;64.84
59158;BME280;44940;55.060;73.168;2022-09-30T07:21:56;102412.78;;;4.13;64.46
59158;BME280;44940;55.060;73.168;2022-09-30T07:24:44;102414.16;;;4.10;64.04
59158;BME280;44940;55.060;73.168;2022-09-30T07:27:11;102414.47;;;3.87;64.86
59158;BME280;44940;55.060;73.168;2022-09-30T07:29:38;102420.59;;;3.72;63.89
59158;BME280;44940;55.060;73.168;2022-09-30T07:32:05;102414.09;;;3.56;65.96
59158;BME280;44940;55.060;73.168;2022-09-30T07:34:32;102412.97;;;3.52;66.15
59158;BME280;44940;55.060;73.168;2022-09-30T07:36:58;102411.06;;;3.80;65.43
59158;BME280;44940;55.060;73.168;2022-09-30T07:39:26;102417.25;;;3.92;65.19
59158;BME280;44940;55.060;73.168;2022-09-30T07:41:54;102416.41;;;4.18;61.92
59158;BME280;44940;55.060;73.168;2022-09-30T07:44:21;102415.03;;;3.89;62.15
59158;BME280;44940;55.060;73.168;2022-09-30T07:46:51;102417.69;;;3.84;63.27
59158;BME280;44940;55.060;73.168;2022-09-30T07:49:18;102419.34;;;3.85;65.55
59158;BME280;44940;55.060;73.168;2022-09-30T07:51:50;102414.34;;;4.04;64.93
59158;BME280;44940;55.060;73.168;2022-09-30T07:54:17;102420.91;;;4.30;65.99
59158;BME280;44940;55.060;73.168;2022-09-30T07:56:44;102422.44;;;4.47;64.07
59158;BME280;44940;55.060;73.168;2022-09-30T07:59:12;102418.97;;;4.62;63.89
59158;BME280;44940;55.060;73.168;2022-09-30T08:01:39;102420.66;;;4.63;62.48
59158;BME280;44940;55.060;73.168;2022-09-30T08:04:07;102418.63;;;4.53;62.56
59158;BME280;44940;55.060;73.168;2022-09-30T08:06:35;102425.88;;;4.33;63.11
59158;BME280;44940;55.060;73.168;2022-09-30T08:09:02;102429.09;;;4.24;63.70
59158;BME280;44940;55.060;73.168;2022-09-30T08:11:31;102425.47;;;3.92;63.98
59158;BME280;44940;55.060;73.168;2022-09-30T08:13:58;102429.75;;;3.83;65.45
59158;BME280;44940;55.060;73.168;2022-09-30T08:16:26;102433.44;;;3.93;66.73
59158;BME280;44940;55.060;73.168;2022-09-30T08:18:53;102434.28;;;3.94;67.45
59158;BME280;44940;55.060;73.168;2022-09-30T08:21:20;102434.00;;;3.95;67.06
59158;BME280;44940;55.060;73.168;2022-09-30T08:23:46;102439.44;;;3.90;68.52
59158;BME280;44940;55.060;73.168;2022-09-30T08:26:13;102432.47;;;3.83;69.58
59158;BME280;44940;55.060;73.168;2022-09-30T08:28:43;102433.69;;;3.92;68.50
59158;BME280;44940;55.060;73.168;2022-09-30T08:31:14;102430.00;;;3.81;68.75
59158;BME280;44940;55.060;73.168;2022-09-30T08:33:42;102436.63;;;3.85;68.47
59158;BME280;44940;55.060;73.168;2022-09-30T08:36:09;102441.41;;;3.95;65.40
59158;BME280;44940;55.060;73.168;2022-09-30T08:38:36;102442.41;;;4.11;64.26
59158;BME280;44940;55.060;73.168;2022-09-30T08:41:06;102437.44;;;4.40;63.90
59158;BME280;44940;55.060;73.168;2022-09-30T08:43:37;102446.25;;;4.42;62.77
59158;BME280;44940;55.060;73.168;2022-09-30T08:46:08;102452.19;;;4.29;63.07
59158;BME280;44940;55.060;73.168;2022-09-30T08:48:43;102446.88;;;4.49;63.98
59158;BME280;44940;55.060;73.168;2022-09-30T08:51:21;102451.28;;;4.50;65.87
59158;BME280;44940;55.060;73.168;2022-09-30T08:53:52;102454.91;;;4.29;65.03
59158;BME280;44940;55.060;73.168;2022-09-30T08:56:21;102457.84;;;4.22;63.24
59158;BME280;44940;55.060;73.168;2022-09-30T08:58:49;102460.19;;;4.08;62.11
59158;BME280;44940;55.060;73.168;2022-09-30T09:01:18;102453.81;;;4.03;61.97
59158;BME280;44940;55.060;73.168;2022-09-30T09:03:47;102456.19;;;3.94;62.15
59158;BME280;44940;55.060;73.168;2022-09-30T09:06:17;102456.06;;;3.84;63.33
59158;BME280;44940;55.060;73.168;2022-09-30T09:08:51;102458.44;;;3.75;64.22
59158;BME280;44940;55.060;73.168;2022-09-30T09:11:26;102453.28;;;3.79;65.59
59158;BME280;44940;55.060;73.168;2022-09-30T09:13:58;102457.94;;;3.78;64.25
59158;BME280;44940;55.060;73.168;2022-09-30T09:16:27;102469.88;;;3.67;62.39
59158;BME280;44940;55.060;73.168;2022-09-30T09:19:00;102459.81;;;4.00;63.72
59158;BME280;44940;55.060;73.168;2022-09-30T09:21:43;102470.59;;;4.33;62.74
59158;BME280;44940;55.060;73.168;2022-09-30T09:24:13;102465.63;;;4.30;63.71
59158;BME280;44940;55.060;73.168;2022-09-30T09:26:40;102461.31;;;4.39;62.67
59158;BME280;44940;55.060;73.168;2022-09-30T09:29:10;102462.63;;;4.32;63.33
59158;BME280;44940;55.060;73.168;2022-09-30T09:31:41;102467.69;;;4.45;62.45
59158;BME280;44940;55.060;73.168;2022-09-30T09:34:10;102465.09;;;4.33;62.19
59158;BME280;44940;55.060;73.168;2022-09-30T09:36:40;102465.56;;;4.52;61.80
59158;BME280;44940;55.060;73.168;2022-09-30T09:39:15;102464.50;;;4.26;62.77
59158;BME280;44940;55.060;73.168;2022-09-30T09:41:45;102471.41;;;4.34;62.07
59158;BME280;44940;55.060;73.168;2022-09-30T09:44:16;102465.97;;;4.39;63.25
59158;BME280;44940;55.060;73.168;2022-09-30T09:46:47;102468.00;;;4.48;64.21
59158;BME280;44940;55.060;73.168;2022-09-30T09:49:27;102470.19;;;4.46;64.45
59158;BME280;44940;55.060;73.168;2022-09-30T09:51:58;102476.00;;;4.55;63.30
59158;BME280;44940;55.060;73.168;2022-09-30T09:54:30;102476.00;;;4.55;63.30
59158;BME280;44940;55.060;73.168;2022-09-30T09:57:03;102475.09;;;4.76;62.50
59158;BME280;44940;55.060;73.168;2022-09-30T09:59:30;102476.28;;;4.53;61.51
59158;BME280;44940;55.060;73.168;2022-09-30T10:01:57;102483.78;;;4.36;62.01
59158;BME280;44940;55.060;73.168;2022-09-30T10:04:27;102476.44;;;4.15;61.86
59158;BME280;44940;55.060;73.168;2022-09-30T10:06:56;102489.31;;;4.14;61.84
59158;BME280;44940;55.060;73.168;2022-09-30T10:09:26;102485.53;;;4.20;63.04
59158;BME280;44940;55.060;73.168;2022-09-30T10:14:38;102483.81;;;4.41;63.58
59158;BME280;44940;55.060;73.168;2022-09-30T10:17:16;102486.13;;;4.49;64.16
59158;BME280;44940;55.060;73.168;2022-09-30T10:19:45;102487.63;;;4.35;63.60
59158;BME280;44940;55.060;73.168;2022-09-30T10:22:18;102490.63;;;4.34;63.54
59158;BME280;44940;55.060;73.168;2022-09-30T10:24:47;102494.19;;;4.34;64.77
59158;BME280;44940;55.060;73.168;2022-09-30T10:27:25;102494.34;;;4.22;64.17
59158;BME280;44940;55.060;73.168;2022-09-30T10:29:51;102501.59;;;4.07;63.77
59158;BME280;44940;55.060;73.168;2022-09-30T10:32:18;102497.28;;;4.16;62.66
59158;BME280;44940;55.060;73.168;2022-09-30T10:34:48;102504.69;;;4.15;63.96
59158;BME280;44940;55.060;73.168;2022-09-30T10:37:20;102502.47;;;4.12;65.02
59158;BME280;44940;55.060;73.168;2022-09-30T10:39:49;102501.91;;;4.10;65.00
59158;BME280;44940;55.060;73.168;2022-09-30T10:42:19;102508.28;;;3.94;63.53
59158;BME280;44940;55.060;73.168;2022-09-30T10:44:51;102501.19;;;3.98;64.58
59158;BME280;44940;55.060;73.168;2022-09-30T10:47:20;102501.72;;;3.95;65.91
59158;BME280;44940;55.060;73.168;2022-09-30T10:49:49;102500.44;;;4.03;64.90
59158;BME280;44940;55.060;73.168;2022-09-30T10:52:19;102504.47;;;3.95;65.05
59158;BME280;44940;55.060;73.168;2022-09-30T10:54:48;102504.31;;;3.85;65.00
59158;BME280;44940;55.060;73.168;2022-09-30T10:57:17;102503.28;;;3.86;65.17
59158;BME280;44940;55.060;73.168;2022-09-30T10:59:44;102500.28;;;3.87;66.57
59158;BME280;44940;55.060;73.168;2022-09-30T11:02:17;102507.41;;;3.88;66.52
59158;BME280;44940;55.060;73.168;2022-09-30T11:04:49;102521.75;;;3.74;64.16
59158;BME280;44940;55.060;73.168;2022-09-30T11:07:20;102509.94;;;3.73;66.10
59158;BME280;44940;55.060;73.168;2022-09-30T11:09:49;102509.19;;;3.78;65.47
59158;BME280;44940;55.060;73.168;2022-09-30T11:12:22;102510.31;;;3.82;66.59
59158;BME280;44940;55.060;73.168;2022-09-30T11:14:50;102509.50;;;3.81;66.25
59158;BME280;44940;55.060;73.168;2022-09-30T11:17:22;102512.63;;;3.68;67.19
59158;BME280;44940;55.060;73.168;2022-09-30T11:19:53;102518.28;;;3.61;67.48
59158;BME280;44940;55.060;73.168;2022-09-30T11:22:30;102517.72;;;3.59;67.49
59158;BME280;44940;55.060;73.168;2022-09-30T11:24:59;102518.28;;;3.61;68.89
59158;BME280;44940;55.060;73.168;2022-09-30T11:27:28;102519.81;;;3.52;69.63
59158;BME280;44940;55.060;73.168;2022-09-30T11:30:00;102526.69;;;3.55;70.06
59158;BME280;44940;55.060;73.168;2022-09-30T11:32:31;102532.50;;;3.58;70.34
59158;BME280;44940;55.060;73.168;2022-09-30T11:35:06;102531.56;;;3.70;69.67
59158;BME280;44940;55.060;73.168;2022-09-30T11:37:38;102530.06;;;3.62;69.24
59158;BME280;44940;55.060;73.168;2022-09-30T11:42:59;102534.66;;;3.56;68.23
59158;BME280;44940;55.060;73.168;2022-09-30T11:45:30;102534.97;;;3.60;69.07
59158;BME280;44940;55.060;73.168;2022-09-30T11:48:07;102542.06;;;3.56;70.08
59158;BME280;44940;55.060;73.168;2022-09-30T11:50:43;102541.47;;;3.54;68.59
59158;BME280;44940;55.060;73.168;2022-09-30T11:53:17;102536.25;;;3.52;69.82
59158;BME280;44940;55.060;73.168;2022-09-30T11:58:38;102539.78;;;3.31;71.30
59158;BME280;44940;55.060;73.168;2022-09-30T12:01:10;102541.78;;;3.19;71.37
59158;BME280;44940;55.060;73.168;2022-09-30T12:03:39;102545.84;;;3.16;71.75
59158;BME280;44940;55.060;73.168;2022-09-30T12:06:12;102550.44;;;3.11;72.20
59158;BME280;44940;55.060;73.168;2022-09-30T12:08:42;102547.00;;;3.03;71.12
59158;BME280;44940;55.060;73.168;2022-09-30T12:11:13;102553.06;;;3.05;72.25
59158;BME280;44940;55.060;73.168;2022-09-30T12:13:42;102554.00;;;3.11;71.66
59158;BME280;44940;55.060;73.168;2022-09-30T12:16:13;102552.41;;;3.15;71.99
59158;BME280;44940;55.060;73.168;2022-09-30T12:18:43;102559.94;;;3.08;72.52
59158;BME280;44940;55.060;73.168;2022-09-30T12:21:15;102548.84;;;2.98;72.59
59158;BME280;44940;55.060;73.168;2022-09-30T12:23:44;102561.53;;;3.04;72.99
59158;BME280;44940;55.060;73.168;2022-09-30T12:26:15;102560.03;;;2.96;72.67
59158;BME280;44940;55.060;73.168;2022-09-30T12:28:43;102561.19;;;3.00;72.96
59158;BME280;44940;55.060;73.168;2022-09-30T12:31:34;102565.50;;;2.96;72.54
59158;BME280;44940;55.060;73.168;2022-09-30T12:34:08;102568.56;;;2.83;72.45
59158;BME280;44940;55.060;73.168;2022-09-30T12:36:51;102573.97;;;2.78;73.37
59158;BME280;44940;55.060;73.168;2022-09-30T12:39:34;102564.59;;;2.74;74.33
59158;BME280;44940;55.060;73.168;2022-09-30T12:42:12;102568.41;;;2.73;73.29
59158;BME280;44940;55.060;73.168;2022-09-30T12:44:49;102572.09;;;2.67;73.57
59158;BME280;44940;55.060;73.168;2022-09-30T12:47:21;102569.88;;;2.64;73.87
59158;BME280;44940;55.060;73.168;2022-09-30T12:49:53;102578.16;;;2.69;74.54
59158;BME280;44940;55.060;73.168;2022-09-30T12:52:22;102580.81;;;2.64;75.74
59158;BME280;44940;55.060;73.168;2022-09-30T12:54:49;102580.88;;;2.52;78.58
59158;BME280;44940;55.060;73.168;2022-09-30T12:57:17;102591.81;;;2.52;77.35
59158;BME280;44940;55.060;73.168;2022-09-30T12:59:47;102594.59;;;2.40;80.16
59158;BME280;44940;55.060;73.168;2022-09-30T13:02:24;102598.78;;;2.31;79.92
59158;BME280;44940;55.060;73.168;2022-09-30T13:04:53;102593.38;;;2.20;80.69
59158;BME280;44940;55.060;73.168;2022-09-30T13:07:20;102599.91;;;2.07;82.45
59158;BME280;44940;55.060;73.168;2022-09-30T13:09:58;102602.56;;;2.02;82.63
59158;BME280;44940;55.060;73.168;2022-09-30T13:12:26;102602.81;;;1.89;84.62